sensor_id;sensor_type;location;lat;lon;timestamp;pressure;altitude;pressure_sealevel;temperature;humidity
10176;BME280;18221;38.704;0.152;2022-08-07T00:26:10;98873.28;;;29.91;41.75
10176;BME280;18221;38.704;0.152;2022-08-07T00:28:38;98876.81;;;29.86;41.84
10176;BME280;18221;38.704;0.152;2022-08-07T00:31:09;98877.38;;;29.88;41.69
10176;BME280;18221;38.704;0.152;2022-08-07T00:33:39;98879.84;;;29.90;41.19
10176;BME280;18221;38.704;0.152;2022-08-07T00:36:12;98880.41;;;29.97;39.98
10176;BME280;18221;38.704;0.152;2022-08-07T00:38:40;98887.56;;;29.98;39.87
10176;BME280;18221;38.704;0.152;2022-08-07T00:41:10;98886.44;;;29.99;39.87
10176;BME280;18221;38.704;0.152;2022-08-07T00:43:38;98886.72;;;29.98;40.81
10176;BME280;18221;38.704;0.152;2022-08-07T00:46:06;98885.59;;;29.93;41.36
10176;BME280;18221;38.704;0.152;2022-08-07T00:48:34;98875.22;;;29.95;41.36
10176;BME280;18221;38.704;0.152;2022-08-07T00:51:04;98872.19;;;29.92;41.66
10176;BME280;18221;38.704;0.152;2022-08-07T00:53:33;98868.91;;;29.90;41.56
10176;BME280;18221;38.704;0.152;2022-08-07T00:56:01;98863.97;;;29.87;42.12
10176;BME280;18221;38.704;0.152;2022-08-07T00:58:31;98869.94;;;29.79;42.35
10176;BME280;18221;38.704;0.152;2022-08-07T01:00:59;98861.66;;;29.69;42.05
10176;BME280;18221;38.704;0.152;2022-08-07T01:03:27;98860.53;;;29.65;42.50
10176;BME280;18221;38.704;0.152;2022-08-07T01:05:55;98860.50;;;29.60;42.92
10176;BME280;18221;38.704;0.152;2022-08-07T01:08:25;98853.94;;;29.61;43.06
10176;BME280;18221;38.704;0.152;2022-08-07T01:10:54;98849.84;;;29.58;42.75
10176;BME280;18221;38.704;0.152;2022-08-07T01:13:22;98849.25;;;29.51;42.96
10176;BME280;18221;38.704;0.152;2022-08-07T01:15:54;98850.63;;;29.49;42.46
10176;BME280;18221;38.704;0.152;2022-08-07T01:18:23;98849.47;;;29.45;42.56
10176;BME280;18221;38.704;0.152;2022-08-07T01:21:04;98846.19;;;29.43;43.44
10176;BME280;18221;38.704;0.152;2022-08-07T01:23:38;98845.34;;;29.37;43.89
10176;BME280;18221;38.704;0.152;2022-08-07T01:26:08;98857.09;;;29.32;44.34
10176;BME280;18221;38.704;0.152;2022-08-07T01:28:38;98857.59;;;29.29;44.00
10176;BME280;18221;38.704;0.152;2022-08-07T01:31:07;98849.38;;;29.24;44.20
10176;BME280;18221;38.704;0.152;2022-08-07T01:33:36;98854.56;;;29.26;44.02
10176;BME280;18221;38.704;0.152;2022-08-07T01:36:07;98848.00;;;29.22;43.35
10176;BME280;18221;38.704;0.152;2022-08-07T01:38:45;98844.91;;;29.18;40.89
10176;BME280;18221;38.704;0.152;2022-08-07T01:41:17;98852.00;;;29.14;37.92
10176;BME280;18221;38.704;0.152;2022-08-07T01:43:46;98847.63;;;29.13;34.75
10176;BME280;18221;38.704;0.152;2022-08-07T01:46:19;98844.34;;;29.11;33.10
10176;BME280;18221;38.704;0.152;2022-08-07T01:48:49;98844.31;;;29.06;31.88
10176;BME280;18221;38.704;0.152;2022-08-07T01:51:21;98846.47;;;29.04;33.10
10176;BME280;18221;38.704;0.152;2022-08-07T01:53:54;98837.44;;;29.04;35.23
10176;BME280;18221;38.704;0.152;2022-08-07T01:56:27;98839.34;;;29.03;37.05
10176;BME280;18221;38.704;0.152;2022-08-07T01:59:05;98833.09;;;29.08;37.90
10176;BME280;18221;38.704;0.152;2022-08-07T02:01:42;98830.16;;;29.19;37.76
10176;BME280;18221;38.704;0.152;2022-08-07T02:04:19;98829.94;;;29.21;38.01
10176;BME280;18221;38.704;0.152;2022-08-07T02:06:54;98829.94;;;29.21;38.14
10176;BME280;18221;38.704;0.152;2022-08-07T02:09:25;98826.06;;;29.17;37.18
10176;BME280;18221;38.704;0.152;2022-08-07T02:11:57;98824.69;;;29.19;34.56
10176;BME280;18221;38.704;0.152;2022-08-07T02:14:44;98818.75;;;29.22;31.79
10176;BME280;18221;38.704;0.152;2022-08-07T02:17:14;98817.56;;;29.18;31.04
10176;BME280;18221;38.704;0.152;2022-08-07T02:19:48;98815.66;;;29.19;29.58
10176;BME280;18221;38.704;0.152;2022-08-07T02:22:19;98813.72;;;29.09;31.01
10176;BME280;18221;38.704;0.152;2022-08-07T02:24:52;98815.28;;;29.00;30.96
10176;BME280;18221;38.704;0.152;2022-08-07T02:27:24;98812.53;;;29.00;29.72
10176;BME280;18221;38.704;0.152;2022-08-07T02:29:55;98815.03;;;29.02;29.18
10176;BME280;18221;38.704;0.152;2022-08-07T02:32:25;98806.03;;;29.06;29.07
10176;BME280;18221;38.704;0.152;2022-08-07T02:34:57;98800.28;;;29.08;28.48
10176;BME280;18221;38.704;0.152;2022-08-07T02:37:39;98800.03;;;29.09;27.95
10176;BME280;18221;38.704;0.152;2022-08-07T02:40:08;98796.44;;;29.04;27.17
10176;BME280;18221;38.704;0.152;2022-08-07T02:42:38;98795.38;;;29.10;27.02
10176;BME280;18221;38.704;0.152;2022-08-07T02:45:11;98791.28;;;29.12;26.39
10176;BME280;18221;38.704;0.152;2022-08-07T02:47:40;98789.63;;;29.06;26.26
10176;BME280;18221;38.704;0.152;2022-08-07T02:50:09;98788.75;;;29.01;26.57
10176;BME280;18221;38.704;0.152;2022-08-07T02:52:43;98786.84;;;29.01;26.35
10176;BME280;18221;38.704;0.152;2022-08-07T02:55:19;98784.69;;;29.03;26.58
10176;BME280;18221;38.704;0.152;2022-08-07T02:57:50;98780.00;;;28.99;26.54
10176;BME280;18221;38.704;0.152;2022-08-07T03:00:19;98783.50;;;28.94;26.60
10176;BME280;18221;38.704;0.152;2022-08-07T03:02:49;98785.69;;;28.92;26.59
10176;BME280;18221;38.704;0.152;2022-08-07T03:05:19;98786.22;;;28.89;27.13
10176;BME280;18221;38.704;0.152;2022-08-07T03:07:49;98789.22;;;28.88;27.11
10176;BME280;18221;38.704;0.152;2022-08-07T03:10:17;98790.28;;;28.87;26.65
10176;BME280;18221;38.704;0.152;2022-08-07T03:12:46;98785.09;;;28.85;26.54
10176;BME280;18221;38.704;0.152;2022-08-07T03:15:16;98787.28;;;28.83;26.88
10176;BME280;18221;38.704;0.152;2022-08-07T03:17:45;98783.72;;;28.83;27.14
10176;BME280;18221;38.704;0.152;2022-08-07T03:20:14;98781.22;;;28.81;27.09
10176;BME280;18221;38.704;0.152;2022-08-07T03:22:44;98780.69;;;28.79;26.99
10176;BME280;18221;38.704;0.152;2022-08-07T03:25:14;98794.34;;;28.79;27.13
10176;BME280;18221;38.704;0.152;2022-08-07T03:27:45;98791.66;;;28.84;27.07
10176;BME280;18221;38.704;0.152;2022-08-07T03:30:15;98790.53;;;28.80;27.16
10176;BME280;18221;38.704;0.152;2022-08-07T03:32:45;98793.22;;;28.75;27.12
10176;BME280;18221;38.704;0.152;2022-08-07T03:35:18;98797.00;;;28.69;27.05
10176;BME280;18221;38.704;0.152;2022-08-07T03:37:55;98791.53;;;28.69;27.71
10176;BME280;18221;38.704;0.152;2022-08-07T03:40:27;98794.81;;;28.71;27.90
10176;BME280;18221;38.704;0.152;2022-08-07T03:42:55;98795.13;;;28.74;29.27
10176;BME280;18221;38.704;0.152;2022-08-07T03:45:26;98793.28;;;28.80;28.08
10176;BME280;18221;38.704;0.152;2022-08-07T03:47:56;98786.97;;;28.80;27.27
10176;BME280;18221;38.704;0.152;2022-08-07T03:50:25;98793.53;;;28.84;28.09
10176;BME280;18221;38.704;0.152;2022-08-07T03:52:55;98796.25;;;28.78;27.78
10176;BME280;18221;38.704;0.152;2022-08-07T03:55:27;98799.00;;;28.84;28.52
10176;BME280;18221;38.704;0.152;2022-08-07T03:57:56;98790.88;;;28.89;28.17
10176;BME280;18221;38.704;0.152;2022-08-07T04:00:25;98788.72;;;28.96;28.19
10176;BME280;18221;38.704;0.152;2022-08-07T04:02:55;98794.53;;;29.04;27.71
10176;BME280;18221;38.704;0.152;2022-08-07T04:05:23;98794.78;;;29.03;26.79
10176;BME280;18221;38.704;0.152;2022-08-07T04:07:51;98792.56;;;29.00;26.96
10176;BME280;18221;38.704;0.152;2022-08-07T04:10:20;98793.69;;;28.99;28.27
10176;BME280;18221;38.704;0.152;2022-08-07T04:12:50;98791.75;;;28.99;29.14
10176;BME280;18221;38.704;0.152;2022-08-07T04:15:20;98791.75;;;28.99;29.08
10176;BME280;18221;38.704;0.152;2022-08-07T04:17:48;98796.16;;;29.05;29.08
10176;BME280;18221;38.704;0.152;2022-08-07T04:20:16;98790.69;;;29.05;29.65
10176;BME280;18221;38.704;0.152;2022-08-07T04:22:45;98795.63;;;29.08;30.51
10176;BME280;18221;38.704;0.152;2022-08-07T04:25:15;98801.66;;;29.10;30.71
10176;BME280;18221;38.704;0.152;2022-08-07T04:27:45;98801.09;;;29.08;31.68
10176;BME280;18221;38.704;0.152;2022-08-07T04:30:15;98801.38;;;29.07;32.58
10176;BME280;18221;38.704;0.152;2022-08-07T04:32:44;98799.44;;;29.07;33.16
10176;BME280;18221;38.704;0.152;2022-08-07T04:35:12;98798.66;;;29.07;32.95
10176;BME280;18221;38.704;0.152;2022-08-07T04:37:40;98800.81;;;29.05;33.83
10176;BME280;18221;38.704;0.152;2022-08-07T04:40:10;98806.81;;;29.02;34.77
10176;BME280;18221;38.704;0.152;2022-08-07T04:42:38;98797.47;;;28.98;35.90
10176;BME280;18221;38.704;0.152;2022-08-07T04:45:06;98801.06;;;28.98;35.99
10176;BME280;18221;38.704;0.152;2022-08-07T04:47:51;98804.13;;;29.07;35.98
10176;BME280;18221;38.704;0.152;2022-08-07T04:50:30;98808.75;;;29.06;36.97
10176;BME280;18221;38.704;0.152;2022-08-07T04:53:08;98807.06;;;29.00;37.46
10176;BME280;18221;38.704;0.152;2022-08-07T04:55:49;98805.69;;;28.98;38.97
10176;BME280;18221;38.704;0.152;2022-08-07T04:58:33;98816.31;;;28.94;40.10
10176;BME280;18221;38.704;0.152;2022-08-07T05:01:13;98820.66;;;28.90;40.91
10176;BME280;18221;38.704;0.152;2022-08-07T05:03:51;98813.00;;;28.87;41.42
10176;BME280;18221;38.704;0.152;2022-08-07T05:06:31;98828.59;;;28.92;41.57
10176;BME280;18221;38.704;0.152;2022-08-07T05:09:08;98833.25;;;28.91;41.61
10176;BME280;18221;38.704;0.152;2022-08-07T05:11:43;98829.16;;;28.89;41.27
10176;BME280;18221;38.704;0.152;2022-08-07T05:14:19;98837.59;;;28.87;41.09
10176;BME280;18221;38.704;0.152;2022-08-07T05:16:52;98830.22;;;28.88;40.05
10176;BME280;18221;38.704;0.152;2022-08-07T05:19:24;98831.06;;;28.88;40.32
10176;BME280;18221;38.704;0.152;2022-08-07T05:22:01;98834.81;;;28.82;39.82
10176;BME280;18221;38.704;0.152;2022-08-07T05:24:30;98836.69;;;28.76;40.19
10176;BME280;18221;38.704;0.152;2022-08-07T05:27:00;98840.25;;;28.77;40.73
10176;BME280;18221;38.704;0.152;2022-08-07T05:29:30;98838.59;;;28.76;41.94
10176;BME280;18221;38.704;0.152;2022-08-07T05:32:01;98837.00;;;28.80;42.45
10176;BME280;18221;38.704;0.152;2022-08-07T05:34:31;98838.59;;;28.76;43.55
10176;BME280;18221;38.704;0.152;2022-08-07T05:37:00;98835.34;;;28.79;43.81
10176;BME280;18221;38.704;0.152;2022-08-07T05:39:29;98831.50;;;28.75;44.37
10176;BME280;18221;38.704;0.152;2022-08-07T05:41:57;98828.25;;;28.78;45.00
10176;BME280;18221;38.704;0.152;2022-08-07T05:44:27;98829.06;;;28.84;44.61
10176;BME280;18221;38.704;0.152;2022-08-07T05:46:58;98828.03;;;28.90;45.00
10176;BME280;18221;38.704;0.152;2022-08-07T05:49:26;98841.44;;;28.86;45.83
10176;BME280;18221;38.704;0.152;2022-08-07T05:51:56;98833.75;;;28.83;46.47
10176;BME280;18221;38.704;0.152;2022-08-07T05:54:24;98832.94;;;28.88;46.16
10176;BME280;18221;38.704;0.152;2022-08-07T05:56:54;98835.19;;;28.96;46.39
10176;BME280;18221;38.704;0.152;2022-08-07T05:59:24;98837.72;;;29.07;45.83
10176;BME280;18221;38.704;0.152;2022-08-07T06:01:53;98838.63;;;29.18;46.26
10176;BME280;18221;38.704;0.152;2022-08-07T06:04:24;98838.63;;;29.18;46.06
10176;BME280;18221;38.704;0.152;2022-08-07T06:06:56;98842.19;;;29.18;46.58
10176;BME280;18221;38.704;0.152;2022-08-07T06:09:24;98849.91;;;29.21;46.32
10176;BME280;18221;38.704;0.152;2022-08-07T06:11:53;98848.53;;;29.24;46.27
10176;BME280;18221;38.704;0.152;2022-08-07T06:14:21;98854.03;;;29.29;45.69
10176;BME280;18221;38.704;0.152;2022-08-07T06:16:50;98854.63;;;29.36;45.48
10176;BME280;18221;38.704;0.152;2022-08-07T06:19:19;98843.44;;;29.38;45.78
10176;BME280;18221;38.704;0.152;2022-08-07T06:21:48;98848.38;;;29.41;46.04
10176;BME280;18221;38.704;0.152;2022-08-07T06:24:18;98845.09;;;29.44;46.44
10176;BME280;18221;38.704;0.152;2022-08-07T06:26:46;98848.69;;;29.49;46.56
10176;BME280;18221;38.704;0.152;2022-08-07T06:29:14;98856.69;;;29.61;46.36
10176;BME280;18221;38.704;0.152;2022-08-07T06:31:42;98857.00;;;29.69;45.88
10176;BME280;18221;38.704;0.152;2022-08-07T06:34:10;98858.47;;;29.87;46.00
10176;BME280;18221;38.704;0.152;2022-08-07T06:36:38;98862.34;;;29.96;45.34
10176;BME280;18221;38.704;0.152;2022-08-07T06:39:05;98860.47;;;30.12;44.40
10176;BME280;18221;38.704;0.152;2022-08-07T06:41:41;98858.59;;;30.22;44.76
10176;BME280;18221;38.704;0.152;2022-08-07T06:44:12;98864.16;;;30.37;44.59
10176;BME280;18221;38.704;0.152;2022-08-07T06:46:41;98865.25;;;30.41;44.06
10176;BME280;18221;38.704;0.152;2022-08-07T06:49:09;98867.44;;;30.39;43.74
10176;BME280;18221;38.704;0.152;2022-08-07T06:51:39;98865.25;;;30.41;43.08
10176;BME280;18221;38.704;0.152;2022-08-07T06:54:13;98868.47;;;30.33;42.80
10176;BME280;18221;38.704;0.152;2022-08-07T06:56:45;98862.44;;;30.31;42.57
10176;BME280;18221;38.704;0.152;2022-08-07T06:59:18;98872.03;;;30.34;41.83
10176;BME280;18221;38.704;0.152;2022-08-07T07:01:48;98865.78;;;30.43;41.53
10176;BME280;18221;38.704;0.152;2022-08-07T07:04:17;98871.28;;;30.53;41.36
10176;BME280;18221;38.704;0.152;2022-08-07T07:06:45;98858.41;;;30.59;40.44
10176;BME280;18221;38.704;0.152;2022-08-07T07:09:19;98860.34;;;30.69;40.54
10176;BME280;18221;38.704;0.152;2022-08-07T07:12:25;98865.00;;;30.78;40.20
10176;BME280;18221;38.704;0.152;2022-08-07T07:15:02;98864.47;;;30.86;40.60
10176;BME280;18221;38.704;0.152;2022-08-07T07:17:38;98859.00;;;30.91;40.55
10176;BME280;18221;38.704;0.152;2022-08-07T07:20:15;98864.72;;;30.90;39.75
10176;BME280;18221;38.704;0.152;2022-08-07T07:22:46;98861.75;;;30.96;39.01
10176;BME280;18221;38.704;0.152;2022-08-07T07:25:17;98858.44;;;31.04;38.56
10176;BME280;18221;38.704;0.152;2022-08-07T07:27:55;98863.63;;;31.21;37.96
10176;BME280;18221;38.704;0.152;2022-08-07T07:30:31;98861.16;;;31.30;36.94
10176;BME280;18221;38.704;0.152;2022-08-07T07:33:03;98862.50;;;31.42;36.12
10176;BME280;18221;38.704;0.152;2022-08-07T07:35:34;98852.03;;;31.64;36.13
10176;BME280;18221;38.704;0.152;2022-08-07T07:38:05;98853.53;;;32.06;35.67
10176;BME280;18221;38.704;0.152;2022-08-07T07:40:36;98860.13;;;32.59;34.32
10176;BME280;18221;38.704;0.152;2022-08-07T07:43:10;98863.28;;;33.10;32.89
10176;BME280;18221;38.704;0.152;2022-08-07T07:45:40;98866.72;;;33.78;31.14
10176;BME280;18221;38.704;0.152;2022-08-07T07:48:12;98868.38;;;34.21;29.57
10176;BME280;18221;38.704;0.152;2022-08-07T07:50:44;98871.41;;;34.81;28.85
10176;BME280;18221;38.704;0.152;2022-08-07T07:53:14;98864.72;;;35.46;27.35
10176;BME280;18221;38.704;0.152;2022-08-07T07:55:42;98862.84;;;36.15;26.23
10176;BME280;18221;38.704;0.152;2022-08-07T07:58:13;98865.91;;;36.85;25.22
10176;BME280;18221;38.704;0.152;2022-08-07T08:00:44;98869.06;;;37.36;23.26
10176;BME280;18221;38.704;0.152;2022-08-07T08:03:16;98874.38;;;37.86;23.06
10176;BME280;18221;38.704;0.152;2022-08-07T08:05:47;98862.41;;;38.33;23.03
10176;BME280;18221;38.704;0.152;2022-08-07T08:08:17;98853.66;;;38.48;23.50
10176;BME280;18221;38.704;0.152;2022-08-07T08:10:45;98863.28;;;38.76;23.34
10176;BME280;18221;38.704;0.152;2022-08-07T08:13:16;98866.03;;;38.94;23.00
10176;BME280;18221;38.704;0.152;2022-08-07T08:15:47;98867.16;;;39.10;22.77
10176;BME280;18221;38.704;0.152;2022-08-07T08:18:18;98876.47;;;39.31;23.21
10176;BME280;18221;38.704;0.152;2022-08-07T08:20:48;98870.94;;;38.97;21.28
10176;BME280;18221;38.704;0.152;2022-08-07T08:23:18;98883.34;;;38.90;21.94
10176;BME280;18221;38.704;0.152;2022-08-07T08:26:05;98879.19;;;38.19;23.57
10176;BME280;18221;38.704;0.152;2022-08-07T08:28:55;98876.19;;;38.64;22.22
10176;BME280;18221;38.704;0.152;2022-08-07T08:31:28;98869.75;;;38.29;22.25
10176;BME280;18221;38.704;0.152;2022-08-07T08:34:03;98882.59;;;38.08;23.88
10176;BME280;18221;38.704;0.152;2022-08-07T08:36:35;98871.84;;;37.14;23.71
10176;BME280;18221;38.704;0.152;2022-08-07T08:39:04;98871.31;;;36.68;25.59
10176;BME280;18221;38.704;0.152;2022-08-07T08:41:46;98888.28;;;35.98;28.73
10176;BME280;18221;38.704;0.152;2022-08-07T08:44:26;98888.41;;;35.66;28.53
10176;BME280;18221;38.704;0.152;2022-08-07T08:47:05;98892.16;;;35.43;30.54
10176;BME280;18221;38.704;0.152;2022-08-07T08:49:43;98891.81;;;34.80;30.99
10176;BME280;18221;38.704;0.152;2022-08-07T08:52:23;98883.47;;;34.66;30.72
10176;BME280;18221;38.704;0.152;2022-08-07T08:54:58;98892.63;;;34.43;32.21
10176;BME280;18221;38.704;0.152;2022-08-07T08:57:39;98890.97;;;34.42;32.98
10176;BME280;18221;38.704;0.152;2022-08-07T09:00:12;98899.84;;;34.39;33.40
10176;BME280;18221;38.704;0.152;2022-08-07T09:02:47;98888.56;;;34.17;33.93
10176;BME280;18221;38.704;0.152;2022-08-07T09:05:38;98895.25;;;34.10;34.61
10176;BME280;18221;38.704;0.152;2022-08-07T09:08:38;98893.91;;;34.08;34.24
10176;BME280;18221;38.704;0.152;2022-08-07T09:11:17;98893.41;;;34.06;34.22
10176;BME280;18221;38.704;0.152;2022-08-07T09:14:01;98892.56;;;33.82;35.06
10176;BME280;18221;38.704;0.152;2022-08-07T09:17:01;98893.50;;;33.96;34.60
10176;BME280;18221;38.704;0.152;2022-08-07T09:19:47;98889.56;;;34.02;34.67
10176;BME280;18221;38.704;0.152;2022-08-07T09:22:38;98891.47;;;34.06;34.78
10176;BME280;18221;38.704;0.152;2022-08-07T09:25:12;98889.84;;;34.00;35.84
10176;BME280;18221;38.704;0.152;2022-08-07T09:27:56;98883.66;;;34.13;36.54
10176;BME280;18221;38.704;0.152;2022-08-07T09:30:40;98885.75;;;33.98;38.10
10176;BME280;18221;38.704;0.152;2022-08-07T09:33:31;98882.88;;;33.84;38.64
10176;BME280;18221;38.704;0.152;2022-08-07T09:36:14;98875.56;;;33.75;38.98
10176;BME280;18221;38.704;0.152;2022-08-07T09:38:53;98878.50;;;33.83;39.44
10176;BME280;18221;38.704;0.152;2022-08-07T09:41:34;98882.53;;;33.91;38.75
10176;BME280;18221;38.704;0.152;2022-08-07T09:44:27;98885.41;;;34.04;39.18
10176;BME280;18221;38.704;0.152;2022-08-07T09:47:12;98884.34;;;34.00;38.78
10176;BME280;18221;38.704;0.152;2022-08-07T09:49:56;98887.69;;;33.97;39.48
10176;BME280;18221;38.704;0.152;2022-08-07T09:52:34;98890.09;;;33.57;40.20
10176;BME280;18221;38.704;0.152;2022-08-07T09:55:15;98883.06;;;33.69;40.11
10176;BME280;18221;38.704;0.152;2022-08-07T10:01:34;98884.25;;;33.87;39.89
10176;BME280;18221;38.704;0.152;2022-08-07T10:04:23;98889.41;;;33.93;39.76
10176;BME280;18221;38.704;0.152;2022-08-07T10:07:17;98891.50;;;33.78;40.13
10176;BME280;18221;38.704;0.152;2022-08-07T10:10:13;98890.91;;;33.57;40.79
10176;BME280;18221;38.704;0.152;2022-08-07T10:13:13;98890.50;;;33.69;41.16
10176;BME280;18221;38.704;0.152;2022-08-07T10:16:03;98882.22;;;33.92;40.52
10176;BME280;18221;38.704;0.152;2022-08-07T10:19:03;98878.19;;;34.08;40.18
10176;BME280;18221;38.704;0.152;2022-08-07T10:21:50;98876.63;;;34.02;40.86
10176;BME280;18221;38.704;0.152;2022-08-07T10:25:02;98874.78;;;33.93;40.95
10176;BME280;18221;38.704;0.152;2022-08-07T10:30:52;98866.41;;;33.79;41.02
10176;BME280;18221;38.704;0.152;2022-08-07T10:33:51;98870.88;;;33.75;41.52
10176;BME280;18221;38.704;0.152;2022-08-07T10:36:37;98868.53;;;33.87;42.00
10176;BME280;18221;38.704;0.152;2022-08-07T10:39:28;98868.31;;;33.84;41.68
10176;BME280;18221;38.704;0.152;2022-08-07T10:42:15;98858.47;;;33.78;40.85
10176;BME280;18221;38.704;0.152;2022-08-07T10:44:57;98861.38;;;33.86;40.11
10176;BME280;18221;38.704;0.152;2022-08-07T10:47:39;98855.81;;;33.91;39.90
10176;BME280;18221;38.704;0.152;2022-08-07T10:50:18;98856.78;;;34.00;39.88
10176;BME280;18221;38.704;0.152;2022-08-07T10:52:59;98855.88;;;34.10;40.09
10176;BME280;18221;38.704;0.152;2022-08-07T10:55:41;98854.09;;;34.19;39.60
10176;BME280;18221;38.704;0.152;2022-08-07T10:58:30;98862.66;;;34.18;38.84
10176;BME280;18221;38.704;0.152;2022-08-07T11:01:20;98857.56;;;34.06;39.04
10176;BME280;18221;38.704;0.152;2022-08-07T11:04:04;98856.84;;;33.95;40.08
10176;BME280;18221;38.704;0.152;2022-08-07T11:06:47;98845.84;;;33.95;39.67
10176;BME280;18221;38.704;0.152;2022-08-07T11:09:24;98845.19;;;34.03;39.39
10176;BME280;18221;38.704;0.152;2022-08-07T11:12:01;98846.81;;;34.04;39.54
10176;BME280;18221;38.704;0.152;2022-08-07T11:14:39;98831.81;;;34.15;38.64
10176;BME280;18221;38.704;0.152;2022-08-07T11:17:15;98840.81;;;34.21;38.99
10176;BME280;18221;38.704;0.152;2022-08-07T11:19:55;98845.06;;;34.13;39.09
10176;BME280;18221;38.704;0.152;2022-08-07T11:22:30;98833.84;;;34.10;38.98
10176;BME280;18221;38.704;0.152;2022-08-07T11:25:11;98838.38;;;34.20;38.83
10176;BME280;18221;38.704;0.152;2022-08-07T11:27:49;98847.75;;;34.19;38.79
10176;BME280;18221;38.704;0.152;2022-08-07T11:30:25;98835.94;;;34.18;39.24
10176;BME280;18221;38.704;0.152;2022-08-07T11:33:01;98837.47;;;34.24;38.72
10176;BME280;18221;38.704;0.152;2022-08-07T11:35:42;98834.56;;;34.15;38.82
10176;BME280;18221;38.704;0.152;2022-08-07T11:38:19;98836.34;;;34.06;39.58
10176;BME280;18221;38.704;0.152;2022-08-07T11:40:58;98830.69;;;34.17;38.66
10176;BME280;18221;38.704;0.152;2022-08-07T11:43:30;98825.28;;;34.30;38.55
10176;BME280;18221;38.704;0.152;2022-08-07T11:49:38;98830.25;;;34.47;37.45
10176;BME280;18221;38.704;0.152;2022-08-07T11:52:30;98830.69;;;34.54;37.32
10176;BME280;18221;38.704;0.152;2022-08-07T11:55:15;98832.13;;;34.51;37.01
10176;BME280;18221;38.704;0.152;2022-08-07T11:57:53;98829.34;;;34.51;37.40
10176;BME280;18221;38.704;0.152;2022-08-07T12:00:34;98835.84;;;34.60;38.43
10176;BME280;18221;38.704;0.152;2022-08-07T12:03:43;98833.91;;;34.61;37.08
10176;BME280;18221;38.704;0.152;2022-08-07T12:06:33;98826.06;;;34.68;36.90
10176;BME280;18221;38.704;0.152;2022-08-07T12:09:11;98831.81;;;34.71;37.33
10176;BME280;18221;38.704;0.152;2022-08-07T12:11:46;98834.34;;;34.68;38.45
10176;BME280;18221;38.704;0.152;2022-08-07T12:14:21;98828.31;;;34.66;38.69
10176;BME280;18221;38.704;0.152;2022-08-07T12:16:57;98830.31;;;34.79;38.07
10176;BME280;18221;38.704;0.152;2022-08-07T12:19:53;98824.53;;;34.94;37.73
10176;BME280;18221;38.704;0.152;2022-08-07T12:22:36;98826.06;;;35.00;37.76
10176;BME280;18221;38.704;0.152;2022-08-07T12:25:16;98823.19;;;34.92;35.92
10176;BME280;18221;38.704;0.152;2022-08-07T12:28:14;98817.38;;;34.93;37.03
10176;BME280;18221;38.704;0.152;2022-08-07T12:30:48;98819.38;;;35.06;36.76
10176;BME280;18221;38.704;0.152;2022-08-07T12:33:22;98814.66;;;35.07;37.31
10176;BME280;18221;38.704;0.152;2022-08-07T12:35:55;98820.22;;;35.20;36.61
10176;BME280;18221;38.704;0.152;2022-08-07T12:38:24;98821.25;;;35.24;36.31
10176;BME280;18221;38.704;0.152;2022-08-07T12:40:54;98817.53;;;35.15;36.44
10176;BME280;18221;38.704;0.152;2022-08-07T12:43:29;98812.63;;;35.12;36.99
10176;BME280;18221;38.704;0.152;2022-08-07T12:46:14;98811.75;;;35.17;37.24
10176;BME280;18221;38.704;0.152;2022-08-07T12:48:57;98804.34;;;35.12;37.70
10176;BME280;18221;38.704;0.152;2022-08-07T12:51:40;98794.44;;;35.11;36.00
10176;BME280;18221;38.704;0.152;2022-08-07T12:54:20;98799.06;;;35.16;36.78
10176;BME280;18221;38.704;0.152;2022-08-07T12:56:55;98796.72;;;35.09;37.06
10176;BME280;18221;38.704;0.152;2022-08-07T12:59:28;98793.72;;;35.06;37.24
10176;BME280;18221;38.704;0.152;2022-08-07T13:02:41;98796.06;;;35.12;37.79
10176;BME280;18221;38.704;0.152;2022-08-07T13:05:35;98787.19;;;35.15;36.44
10176;BME280;18221;38.704;0.152;2022-08-07T13:08:33;98791.94;;;34.96;34.96
10176;BME280;18221;38.704;0.152;2022-08-07T13:11:24;98789.47;;;34.95;38.32
10176;BME280;18221;38.704;0.152;2022-08-07T13:14:09;98789.34;;;35.18;37.28
10176;BME280;18221;38.704;0.152;2022-08-07T13:16:59;98778.50;;;35.08;36.79
10176;BME280;18221;38.704;0.152;2022-08-07T13:19:42;98776.97;;;35.16;35.71
10176;BME280;18221;38.704;0.152;2022-08-07T13:22:20;98777.19;;;35.19;36.37
10176;BME280;18221;38.704;0.152;2022-08-07T13:25:03;98768.91;;;35.19;36.96
10176;BME280;18221;38.704;0.152;2022-08-07T13:27:39;98772.97;;;35.35;36.85
10176;BME280;18221;38.704;0.152;2022-08-07T13:30:11;98777.59;;;35.26;35.86
10176;BME280;18221;38.704;0.152;2022-08-07T13:32:48;98772.97;;;35.35;36.86
10176;BME280;18221;38.704;0.152;2022-08-07T13:35:28;98770.13;;;35.27;37.50
10176;BME280;18221;38.704;0.152;2022-08-07T13:38:07;98767.38;;;35.27;37.80
10176;BME280;18221;38.704;0.152;2022-08-07T13:40:56;98770.66;;;35.29;38.03
10176;BME280;18221;38.704;0.152;2022-08-07T13:43:29;98757.66;;;35.29;37.87
10176;BME280;18221;38.704;0.152;2022-08-07T13:46:01;98758.69;;;35.33;37.76
10176;BME280;18221;38.704;0.152;2022-08-07T13:48:31;98758.06;;;35.37;37.04
10176;BME280;18221;38.704;0.152;2022-08-07T13:51:01;98752.94;;;35.44;37.75
10176;BME280;18221;38.704;0.152;2022-08-07T13:53:34;98754.47;;;35.50;37.67
10176;BME280;18221;38.704;0.152;2022-08-07T13:56:07;98752.53;;;35.50;37.58
10176;BME280;18221;38.704;0.152;2022-08-07T13:58:40;98755.59;;;35.49;37.90
10176;BME280;18221;38.704;0.152;2022-08-07T14:01:30;98747.41;;;35.44;36.49
10176;BME280;18221;38.704;0.152;2022-08-07T14:04:06;98748.13;;;35.35;37.55
10176;BME280;18221;38.704;0.152;2022-08-07T14:06:38;98747.03;;;35.37;36.93
10176;BME280;18221;38.704;0.152;2022-08-07T14:09:14;98743.16;;;35.38;37.45
10176;BME280;18221;38.704;0.152;2022-08-07T14:11:49;98740.06;;;35.25;38.77
10176;BME280;18221;38.704;0.152;2022-08-07T14:14:25;98739.84;;;35.35;38.00
10176;BME280;18221;38.704;0.152;2022-08-07T14:16:59;98740.16;;;35.48;37.60
10176;BME280;18221;38.704;0.152;2022-08-07T14:19:36;98739.66;;;35.46;37.08